Time;durP1;ratioP1;P1;durP2;ratioP2;P2;SDS_P1;SDS_P2;PMS_P1;PMS_P2;Temp;Humidity;BMP_temperature;BMP_pressure;BME280_temperature;BME280_humidity;BME280_pressure;Samples;Min_cycle;Max_cycle;Signal;HPM_P1;HPM_P2
2022/08/20 00:01:08;;;;;;;6.00;4.30;;;20.60;79.50;;;;;;5054778;28;20552;-59
2022/08/20 00:03:38;;;;;;;4.30;3.90;;;20.60;80.20;;;;;;5054676;28;20531;-59
2022/08/20 00:06:09;;;;;;;6.53;4.97;;;20.60;80.90;;;;;;5055170;28;20443;-59
2022/08/20 00:08:37;;;;;;;5.23;4.60;;;20.60;81.60;;;;;;5054974;28;20444;-59
2022/08/20 00:11:09;;;;;;;5.57;4.60;;;20.50;82.30;;;;;;5055197;28;21036;-59
2022/08/20 00:13:38;;;;;;;4.83;4.10;;;20.50;82.90;;;;;;5056927;28;20460;-59
2022/08/20 00:16:10;;;;;;;4.33;3.93;;;20.50;83.50;;;;;;5057589;28;20591;-58
2022/08/20 00:18:38;;;;;;;4.27;3.87;;;20.50;84.10;;;;;;5057577;28;20795;-59
2022/08/20 00:21:08;;;;;;;4.87;4.47;;;20.40;84.50;;;;;;5057671;28;20487;-59
2022/08/20 00:23:36;;;;;;;4.60;4.20;;;20.40;85.00;;;;;;5057605;28;20538;-59
2022/08/20 00:26:04;;;;;;;4.60;4.20;;;20.40;85.40;;;;;;5059316;28;20466;-59
2022/08/20 00:28:33;;;;;;;5.83;4.67;;;20.30;85.60;;;;;;5059244;28;20782;-61
2022/08/20 00:31:02;;;;;;;6.60;5.03;;;20.30;86.00;;;;;;5059209;28;20450;-58
2022/08/20 00:33:30;;;;;;;6.33;4.23;;;20.30;86.30;;;;;;5058078;28;20500;-59
2022/08/20 00:35:58;;;;;;;4.23;3.90;;;20.30;86.50;;;;;;5058937;28;20924;-59
2022/08/20 00:38:25;;;;;;;5.37;4.30;;;20.30;86.70;;;;;;5057344;28;20448;-58
2022/08/20 00:40:55;;;;;;;5.37;4.67;;;20.30;86.80;;;;;;5057835;28;20454;-60
2022/08/20 00:43:35;;;;;;;4.60;4.20;;;20.30;86.90;;;;;;5057508;28;20446;-59
2022/08/20 00:46:05;;;;;;;6.73;4.47;;;20.30;87.00;;;;;;5057666;28;20505;-59
2022/08/20 00:48:34;;;;;;;4.90;3.77;;;20.30;87.10;;;;;;5057618;28;20539;-59
2022/08/20 00:51:06;;;;;;;4.80;4.30;;;20.30;87.10;;;;;;5057616;28;20547;-60
2022/08/20 00:53:34;;;;;;;4.10;3.70;;;20.30;87.00;;;;;;5057394;28;20424;-60
2022/08/20 00:56:02;;;;;;;5.93;3.83;;;20.30;86.90;;;;;;5057010;28;20582;-60
2022/08/20 00:58:29;;;;;;;5.20;3.90;;;20.30;87.00;;;;;;5056735;28;20531;-60
2022/08/20 01:00:58;;;;;;;5.13;4.37;;;20.30;87.00;;;;;;5056437;28;20547;-60
2022/08/20 01:03:26;;;;;;;5.07;4.57;;;20.30;87.00;;;;;;5056051;28;20536;-59
2022/08/20 01:05:53;;;;;;;5.60;4.10;;;20.30;87.10;;;;;;5056144;28;20450;-60
2022/08/20 01:08:23;;;;;;;5.93;4.50;;;20.30;87.20;;;;;;5056630;28;20487;-59
2022/08/20 01:10:52;;;;;;;5.10;3.50;;;20.30;87.00;;;;;;5056287;28;20497;-60
2022/08/20 01:13:23;;;;;;;6.53;3.57;;;20.30;86.30;;;;;;5056202;28;20487;-59
2022/08/20 01:15:54;;;;;;;5.93;4.50;;;20.30;85.50;;;;;;5056116;28;20473;-60
2022/08/20 01:18:26;;;;;;;10.30;4.23;;;20.40;85.00;;;;;;5056115;28;20531;-59
2022/08/20 01:20:58;;;;;;;5.10;3.60;;;20.40;84.50;;;;;;5055786;28;20477;-61
2022/08/20 01:23:34;;;;;;;5.40;3.73;;;20.40;83.90;;;;;;5056170;28;20508;-60
2022/08/20 01:26:08;;;;;;;5.20;4.17;;;20.50;82.90;;;;;;5056196;28;20490;-60
2022/08/20 01:28:39;;;;;;;5.40;3.67;;;20.50;82.20;;;;;;5056070;28;20433;-59
2022/08/20 01:31:10;;;;;;;6.33;4.10;;;20.50;81.50;;;;;;5055668;28;20475;-60
2022/08/20 01:33:37;;;;;;;4.00;3.53;;;20.50;80.90;;;;;;5055759;28;20571;-58
2022/08/20 01:36:06;;;;;;;5.90;3.87;;;20.50;80.30;;;;;;5055705;28;20486;-59
2022/08/20 01:38:34;;;;;;;5.30;4.30;;;20.50;79.80;;;;;;5055013;28;20535;-58
2022/08/20 01:41:22;;;;;;;4.20;3.80;;;20.50;79.30;;;;;;5055600;28;20448;-59
2022/08/20 01:43:55;;;;;;;5.30;3.90;;;20.50;79.00;;;;;;5056139;28;20428;-58
2022/08/20 01:46:24;;;;;;;8.07;4.53;;;20.50;78.60;;;;;;5055407;28;20416;-59
2022/08/20 01:48:54;;;;;;;4.40;3.30;;;20.40;77.90;;;;;;5055498;28;20519;-58
2022/08/20 01:51:24;;;;;;;4.83;3.60;;;20.40;77.30;;;;;;5055003;28;20894;-59
2022/08/20 01:53:54;;;;;;;5.50;3.90;;;20.40;76.80;;;;;;5055142;28;20505;-59
2022/08/20 01:56:27;;;;;;;4.07;3.20;;;20.40;76.30;;;;;;5055532;28;20476;-58
2022/08/20 01:58:57;;;;;;;3.57;3.23;;;20.30;75.60;;;;;;5055428;28;20511;-59
2022/08/20 02:01:32;;;;;;;4.30;3.33;;;20.30;75.00;;;;;;5054869;28;20899;-58
2022/08/20 02:04:00;;;;;;;3.63;3.33;;;20.30;74.50;;;;;;5055803;28;20436;-58
2022/08/20 02:06:29;;;;;;;4.20;3.60;;;20.30;73.80;;;;;;5054942;28;20444;-59
2022/08/20 02:08:59;;;;;;;5.47;3.80;;;20.20;73.40;;;;;;5054775;28;20539;-58
2022/08/20 02:11:29;;;;;;;4.83;3.03;;;20.20;74.00;;;;;;5054666;28;20472;-59
2022/08/20 02:13:57;;;;;;;3.23;2.93;;;20.20;73.10;;;;;;5054797;28;20527;-59
2022/08/20 02:16:28;;;;;;;3.03;2.70;;;20.20;72.90;;;;;;5054634;28;20485;-59
2022/08/20 02:18:58;;;;;;;4.13;2.60;;;20.10;72.50;;;;;;5055066;28;20421;-59
2022/08/20 02:21:30;;;;;;;2.87;2.57;;;20.10;72.40;;;;;;5054693;28;20468;-58
2022/08/20 02:23:57;;;;;;;4.37;2.87;;;20.10;72.20;;;;;;5054609;28;20523;-58
2022/08/20 02:26:25;;;;;;;6.00;3.23;;;20.10;72.20;;;;;;5054571;28;20531;-59
2022/08/20 02:28:54;;;;;;;5.17;2.90;;;20.10;72.20;;;;;;5054460;28;20497;-58
2022/08/20 02:31:23;;;;;;;3.90;2.83;;;20.10;72.30;;;;;;5054392;28;20964;-58
2022/08/20 02:33:51;;;;;;;4.43;3.00;;;20.10;72.50;;;;;;5054287;28;20968;-58
2022/08/20 02:36:19;;;;;;;5.67;3.37;;;20.10;72.70;;;;;;5054046;28;20575;-58
2022/08/20 02:38:47;;;;;;;4.50;3.30;;;20.10;73.00;;;;;;5054457;28;20444;-59
2022/08/20 02:41:15;;;;;;;5.37;2.83;;;20.10;73.30;;;;;;5055098;28;20468;-58
2022/08/20 02:43:43;;;;;;;3.93;3.53;;;20.10;73.50;;;;;;5055300;28;20503;-58
2022/08/20 02:46:11;;;;;;;3.33;3.00;;;20.10;73.70;;;;;;5055535;28;20444;-58
2022/08/20 02:48:39;;;;;;;3.23;2.93;;;20.10;73.80;;;;;;5054123;28;20535;-58
2022/08/20 02:51:07;;;;;;;5.73;2.70;;;20.10;73.90;;;;;;5055325;28;20501;-59
2022/08/20 02:53:36;;;;;;;3.23;2.93;;;20.10;74.00;;;;;;5053973;28;20437;-56
2022/08/20 02:56:04;;;;;;;4.20;3.53;;;20.10;74.10;;;;;;5056489;28;20579;-59
2022/08/20 02:58:34;;;;;;;3.90;3.50;;;20.10;74.20;;;;;;5057793;28;20574;-58
2022/08/20 03:01:02;;;;;;;5.00;3.50;;;20.10;74.40;;;;;;5059093;28;20452;-60
2022/08/20 03:03:31;;;;;;;5.07;4.00;;;20.10;74.50;;;;;;5058417;28;20448;-59
2022/08/20 03:05:59;;;;;;;6.13;3.63;;;20.10;74.60;;;;;;5056456;28;20483;-58
2022/08/20 03:08:28;;;;;;;6.43;3.63;;;20.20;74.80;;;;;;5054308;28;20450;-59
2022/08/20 03:10:55;;;;;;;4.10;3.70;;;20.20;74.90;;;;;;5054588;28;20447;-60
2022/08/20 03:13:24;;;;;;;4.37;3.30;;;20.20;74.90;;;;;;5054447;28;20518;-58
2022/08/20 03:15:54;;;;;;;3.90;3.50;;;20.20;75.10;;;;;;5054708;28;20594;-58
2022/08/20 03:18:23;;;;;;;4.00;3.57;;;20.20;75.10;;;;;;5054071;28;20433;-58
2022/08/20 03:20:52;;;;;;;6.17;3.97;;;20.20;75.20;;;;;;5053664;28;20531;-58
2022/08/20 03:23:21;;;;;;;4.70;3.10;;;20.20;75.30;;;;;;5054670;28;20445;-59
2022/08/20 03:25:49;;;;;;;4.50;3.60;;;20.20;75.50;;;;;;5053457;28;20446;-59
2022/08/20 03:28:17;;;;;;;6.13;3.27;;;20.20;75.60;;;;;;5053744;28;20457;-59
2022/08/20 03:30:44;;;;;;;3.53;3.03;;;20.20;75.70;;;;;;5053369;28;20527;-59
2022/08/20 03:33:11;;;;;;;5.37;3.37;;;20.20;75.80;;;;;;5053223;28;20551;-59
2022/08/20 03:35:39;;;;;;;4.73;3.57;;;20.20;76.00;;;;;;5053129;28;20579;-58
2022/08/20 03:38:10;;;;;;;4.37;3.50;;;20.10;76.20;;;;;;5053379;28;20790;-58
2022/08/20 03:40:38;;;;;;;5.27;3.43;;;20.00;76.60;;;;;;5053200;28;20438;-59
2022/08/20 03:43:07;;;;;;;7.00;3.30;;;20.00;77.00;;;;;;5053309;28;20494;-59
2022/08/20 03:45:36;;;;;;;4.23;3.83;;;19.90;77.20;;;;;;5053385;28;20478;-58
2022/08/20 03:48:06;;;;;;;5.80;3.93;;;19.90;77.60;;;;;;5052947;28;20440;-59
2022/08/20 03:50:34;;;;;;;4.10;3.70;;;19.80;77.70;;;;;;5053356;28;20436;-59
2022/08/20 03:53:02;;;;;;;5.80;3.63;;;19.80;77.90;;;;;;5054174;28;20929;-57
2022/08/20 03:55:31;;;;;;;4.37;3.63;;;19.80;78.30;;;;;;5053254;28;20542;-59
2022/08/20 03:58:01;;;;;;;4.80;3.70;;;19.80;78.70;;;;;;5053172;28;20480;-59
2022/08/20 04:00:34;;;;;;;5.10;3.20;;;19.70;78.90;;;;;;5052455;28;20527;-59
2022/08/20 04:03:01;;;;;;;5.30;3.67;;;19.70;79.20;;;;;;5052739;28;20471;-59
2022/08/20 04:05:31;;;;;;;4.20;3.80;;;19.70;79.70;;;;;;5052781;28;20445;-59
2022/08/20 04:10:11;;;;;;;5.30;3.70;;;19.60;79.90;;;;;;5103589;27;1474141;-59
2022/08/20 04:12:39;;;;;;;5.63;3.90;;;19.60;80.70;;;;;;5115776;28;20226;-60
2022/08/20 04:15:09;;;;;;;4.10;3.70;;;19.70;81.20;;;;;;5111208;28;20445;-60
2022/08/20 04:17:38;;;;;;;4.60;4.20;;;19.70;81.70;;;;;;5110889;28;20484;-60
2022/08/20 04:20:06;;;;;;;7.60;4.50;;;19.70;82.30;;;;;;5110810;28;20482;-60
2022/08/20 04:22:34;;;;;;;5.63;5.13;;;19.70;83.10;;;;;;5110682;28;20504;-58
2022/08/20 04:25:01;;;;;;;5.33;4.83;;;19.60;83.80;;;;;;5111180;28;20516;-60
2022/08/20 04:27:31;;;;;;;6.83;5.10;;;19.60;84.50;;;;;;5110683;28;20448;-60
2022/08/20 04:29:58;;;;;;;5.73;5.23;;;19.70;85.30;;;;;;5110899;28;20477;-60
2022/08/20 04:32:26;;;;;;;6.83;5.60;;;19.70;86.70;;;;;;5110852;28;20548;-60
2022/08/20 04:34:53;;;;;;;8.57;5.93;;;19.70;86.30;;;;;;5110704;28;20956;-60
2022/08/20 04:37:21;;;;;;;6.70;6.00;;;19.60;87.20;;;;;;5110863;28;20941;-60
2022/08/20 04:40:52;;;;;;;9.40;6.80;;;19.60;88.90;;;;;;5110971;28;20493;-60
2022/08/20 04:42:39;;;;;;;7.33;6.63;;;19.50;90.20;;;;;;5110135;28;20556;-60
2022/08/20 04:45:08;;;;;;;6.97;6.27;;;19.50;91.20;;;;;;5110558;28;20461;-60
2022/08/20 04:47:35;;;;;;;7.57;6.77;;;19.40;91.70;;;;;;5117347;28;20437;-58
2022/08/20 04:50:03;;;;;;;7.50;6.80;;;19.40;92.30;;;;;;5124354;28;20538;-60
2022/08/20 04:52:31;;;;;;;8.80;7.13;;;19.30;93.00;;;;;;5116482;28;20466;-60
2022/08/20 04:54:58;;;;;;;7.40;6.10;;;19.30;93.70;;;;;;5115103;28;20441;-60
2022/08/20 04:57:26;;;;;;;9.00;7.03;;;19.30;94.20;;;;;;5113930;28;20949;-59
2022/08/20 04:59:54;;;;;;;7.47;6.87;;;19.20;94.70;;;;;;5112573;28;20441;-59
2022/08/20 05:02:22;;;;;;;8.30;7.50;;;19.20;95.30;;;;;;5111894;28;20520;-60
2022/08/20 05:04:49;;;;;;;7.67;6.93;;;19.20;95.80;;;;;;5110877;28;20445;-59
2022/08/20 05:07:18;;;;;;;7.50;6.67;;;19.20;96.10;;;;;;5111821;28;20446;-59
2022/08/20 05:09:46;;;;;;;8.80;7.67;;;19.10;96.50;;;;;;5116221;28;20516;-60
2022/08/20 05:12:16;;;;;;;8.53;7.47;;;19.20;96.70;;;;;;5115612;28;20470;-60
2022/08/20 05:14:44;;;;;;;8.07;7.27;;;19.20;97.00;;;;;;5115724;28;20453;-60
2022/08/20 05:17:13;;;;;;;9.07;7.97;;;19.20;97.30;;;;;;5118556;28;20961;-60
2022/08/20 05:19:41;;;;;;;7.87;7.17;;;19.20;97.60;;;;;;5118019;28;20430;-60
2022/08/20 05:22:09;;;;;;;7.50;6.70;;;19.20;97.90;;;;;;5103133;28;20496;-60
2022/08/20 05:24:36;;;;;;;9.57;8.60;;;19.20;98.20;;;;;;5097153;28;21001;-60
2022/08/20 05:27:03;;;;;;;8.50;7.70;;;19.20;98.40;;;;;;5097316;28;20481;-59
2022/08/20 05:29:30;;;;;;;9.80;8.37;;;19.30;98.70;;;;;;5096381;28;21091;-60
2022/08/20 05:31:57;;;;;;;9.33;8.30;;;19.30;99.00;;;;;;5096779;28;20561;-59
2022/08/20 05:34:26;;;;;;;10.30;8.40;;;19.30;99.20;;;;;;5096270;28;20534;-59
2022/08/20 05:36:53;;;;;;;8.40;7.60;;;19.30;99.20;;;;;;5095554;28;20523;-59
2022/08/20 05:39:23;;;;;;;9.43;7.40;;;19.40;99.30;;;;;;5095871;28;21006;-59
2022/08/20 05:41:50;;;;;;;8.80;7.90;;;19.50;99.40;;;;;;5096785;28;20553;-61
2022/08/20 05:44:18;;;;;;;9.70;8.07;;;19.50;99.30;;;;;;5096566;28;20579;-59
2022/08/20 05:46:47;;;;;;;9.33;8.43;;;19.60;99.40;;;;;;5096827;28;20495;-60
2022/08/20 05:49:17;;;;;;;9.43;8.53;;;19.70;99.40;;;;;;5095809;28;20519;-60
2022/08/20 05:51:47;;;;;;;10.70;9.60;;;19.70;99.30;;;;;;5095855;28;20470;-59
2022/08/20 05:54:15;;;;;;;9.83;8.93;;;19.80;99.40;;;;;;5095190;28;20443;-60
2022/08/20 05:56:43;;;;;;;9.90;8.90;;;19.80;99.60;;;;;;5095246;28;20452;-59
2022/08/20 05:59:11;;;;;;;11.27;9.10;;;19.80;99.70;;;;;;5095590;28;20438;-59
2022/08/20 06:01:40;;;;;;;8.10;7.00;;;19.90;99.70;;;;;;5095333;28;20498;-60
2022/08/20 06:04:23;;;;;;;8.80;7.30;;;19.90;99.80;;;;;;5095282;28;20446;-59
2022/08/20 06:06:53;;;;;;;8.50;7.70;;;19.90;99.90;;;;;;5095295;28;20464;-59
2022/08/20 06:09:22;;;;;;;7.90;7.20;;;20.00;99.80;;;;;;5095175;28;20510;-59
2022/08/20 06:11:50;;;;;;;8.70;6.67;;;20.00;99.70;;;;;;5095357;28;20912;-58
2022/08/20 06:14:17;;;;;;;8.53;7.60;;;20.00;99.70;;;;;;5095216;28;20541;-58
2022/08/20 06:16:45;;;;;;;8.13;6.50;;;20.10;99.70;;;;;;5094909;28;20454;-59
2022/08/20 06:19:13;;;;;;;7.37;6.67;;;20.10;99.60;;;;;;5095266;28;20858;-60
2022/08/20 06:21:40;;;;;;;8.80;7.90;;;20.20;99.50;;;;;;5095202;28;20467;-59
2022/08/20 06:24:09;;;;;;;7.27;6.57;;;20.20;99.50;;;;;;5094750;28;20542;-59
2022/08/20 06:26:37;;;;;;;7.73;6.90;;;20.30;99.50;;;;;;5094498;28;20442;-59
2022/08/20 06:29:06;;;;;;;9.40;7.30;;;20.30;99.60;;;;;;5094354;28;20830;-59
2022/08/20 06:31:38;;;;;;;8.90;7.37;;;20.40;99.30;;;;;;5093225;28;20521;-59
2022/08/20 06:34:06;;;;;;;7.67;6.97;;;20.40;99.20;;;;;;5094427;28;20948;-59
2022/08/20 06:36:33;;;;;;;7.70;6.87;;;20.50;99.00;;;;;;5094619;28;20449;-59
2022/08/20 06:39:00;;;;;;;7.27;6.53;;;20.50;98.60;;;;;;5094139;28;20442;-58
2022/08/20 06:41:29;;;;;;;8.63;7.73;;;20.60;98.50;;;;;;5093930;28;20501;-59
2022/08/20 06:43:56;;;;;;;7.83;7.13;;;20.80;98.10;;;;;;5094053;28;20476;-59
2022/08/20 06:46:23;;;;;;;7.60;6.80;;;20.90;97.50;;;;;;5093932;28;20529;-58
2022/08/20 06:48:51;;;;;;;8.57;7.70;;;21.10;96.90;;;;;;5093850;28;20558;-59
2022/08/20 06:51:20;;;;;;;7.87;7.07;;;21.30;96.20;;;;;;5093868;28;20463;-61
2022/08/20 06:53:47;;;;;;;8.37;7.57;;;21.50;95.60;;;;;;5094027;28;20449;-60
2022/08/20 06:56:15;;;;;;;10.33;7.60;;;21.70;95.20;;;;;;5094243;28;20547;-60
2022/08/20 06:58:44;;;;;;;8.40;7.50;;;21.80;94.70;;;;;;5094086;28;20506;-59
2022/08/20 07:01:12;;;;;;;9.20;8.30;;;21.90;94.30;;;;;;5093894;28;20497;-60
2022/08/20 07:03:40;;;;;;;9.43;8.40;;;22.10;93.80;;;;;;5094136;28;20548;-60
2022/08/20 07:06:07;;;;;;;10.40;9.37;;;22.30;93.30;;;;;;5094468;28;20479;-60
2022/08/20 07:08:36;;;;;;;10.07;8.93;;;22.40;92.90;;;;;;5094139;28;20489;-59
2022/08/20 07:11:03;;;;;;;10.50;9.50;;;22.60;92.40;;;;;;5093773;28;20463;-58
2022/08/20 07:13:31;;;;;;;10.63;9.63;;;22.70;92.10;;;;;;5094528;28;20529;-59
2022/08/20 07:16:00;;;;;;;13.13;9.10;;;22.80;91.70;;;;;;5096373;28;20470;-59
2022/08/20 07:18:27;;;;;;;9.93;8.93;;;22.80;91.30;;;;;;5094271;28;20474;-59
2022/08/20 07:20:55;;;;;;;9.90;8.90;;;22.80;91.30;;;;;;5093876;28;20473;-59
2022/08/20 07:23:23;;;;;;;10.17;9.17;;;22.80;91.30;;;;;;5093884;28;20444;-59
2022/08/20 07:25:50;;;;;;;9.57;8.60;;;22.90;90.90;;;;;;5093772;28;20943;-60
2022/08/20 07:28:20;;;;;;;11.07;10.03;;;23.00;90.80;;;;;;5093366;28;20529;-59
2022/08/20 07:33:34;;;;;;;10.53;9.30;;;23.20;90.50;;;;;;5093397;28;20454;-59
2022/08/20 07:36:03;;;;;;;11.40;9.90;;;23.30;90.10;;;;;;5093584;28;20478;-59
2022/08/20 07:38:31;;;;;;;11.30;9.80;;;23.40;89.60;;;;;;5093415;28;20436;-59
2022/08/20 07:41:01;;;;;;;11.50;10.17;;;23.60;89.00;;;;;;5092939;28;21006;-60
2022/08/20 07:43:29;;;;;;;11.43;10.30;;;23.70;87.90;;;;;;5093101;28;20482;-60
2022/08/20 07:45:59;;;;;;;10.07;9.07;;;23.70;87.00;;;;;;5093147;28;20478;-60
2022/08/20 07:48:27;;;;;;;10.40;8.80;;;23.70;86.80;;;;;;5093208;28;20528;-60
2022/08/20 07:50:56;;;;;;;11.43;10.40;;;23.80;86.40;;;;;;5094324;28;20484;-61
2022/08/20 07:53:24;;;;;;;10.33;9.30;;;24.00;85.50;;;;;;5092856;28;20501;-60
2022/08/20 07:55:51;;;;;;;9.47;8.57;;;24.10;84.40;;;;;;5093467;28;20475;-59
2022/08/20 07:58:21;;;;;;;8.03;7.33;;;24.10;83.90;;;;;;5092930;28;20826;-60
2022/08/20 08:00:48;;;;;;;9.43;8.47;;;24.30;83.10;;;;;;5092808;28;20444;-58
2022/08/20 08:03:16;;;;;;;10.07;8.00;;;24.30;82.30;;;;;;5093261;28;20444;-60
2022/08/20 08:05:46;;;;;;;8.83;8.03;;;24.10;81.30;;;;;;5093193;28;20444;-60
2022/08/20 08:08:19;;;;;;;8.47;7.60;;;24.20;81.60;;;;;;5093043;28;20923;-60
2022/08/20 08:10:49;;;;;;;9.00;8.10;;;24.20;80.80;;;;;;5093073;28;20497;-59
2022/08/20 08:13:16;;;;;;;8.57;7.73;;;24.20;80.60;;;;;;5092878;28;20505;-61
2022/08/20 08:15:48;;;;;;;10.27;7.20;;;24.20;80.40;;;;;;5093087;28;20457;-60
2022/08/20 08:18:20;;;;;;;8.00;7.20;;;24.20;80.30;;;;;;5092998;28;20541;-60
2022/08/20 08:20:51;;;;;;;7.33;6.63;;;24.00;80.80;;;;;;5093342;28;20426;-60
2022/08/20 08:23:22;;;;;;;6.70;6.00;;;23.80;81.40;;;;;;5093745;28;20458;-60
2022/08/20 08:25:52;;;;;;;7.90;7.20;;;23.60;81.50;;;;;;5093414;28;20490;-60
2022/08/20 08:28:20;;;;;;;7.80;7.07;;;23.50;82.10;;;;;;5093052;28;20458;-59
2022/08/20 08:30:48;;;;;;;7.40;6.70;;;23.30;81.90;;;;;;5093456;28;20562;-60
2022/08/20 08:33:29;;;;;;;8.90;8.00;;;23.10;81.70;;;;;;5092853;28;20515;-60
2022/08/20 08:35:59;;;;;;;8.77;7.87;;;22.90;82.10;;;;;;5093266;28;20441;-59
2022/08/20 08:38:28;;;;;;;9.13;7.30;;;22.70;83.20;;;;;;5092503;28;20482;-59
2022/08/20 08:40:57;;;;;;;7.60;6.87;;;22.60;84.20;;;;;;5092677;28;20481;-60
2022/08/20 08:43:27;;;;;;;9.80;8.90;;;22.50;84.80;;;;;;5092852;28;20454;-60
2022/08/20 08:46:00;;;;;;;9.40;8.10;;;22.70;85.00;;;;;;5092345;28;20536;-60
2022/08/20 08:48:35;;;;;;;8.33;7.53;;;22.70;85.00;;;;;;5092963;28;20430;-60
2022/08/20 08:51:06;;;;;;;11.90;8.47;;;22.70;85.20;;;;;;5092661;28;20466;-60
2022/08/20 08:53:40;;;;;;;8.67;7.80;;;22.70;85.30;;;;;;5092951;28;20431;-59
2022/08/20 08:56:09;;;;;;;9.17;8.20;;;22.70;85.40;;;;;;5095109;28;20433;-60
2022/08/20 08:58:37;;;;;;;9.47;8.07;;;22.70;85.20;;;;;;5096495;28;20536;-60
2022/08/20 09:01:11;;;;;;;8.93;7.27;;;22.70;85.00;;;;;;5096167;28;20549;-59
2022/08/20 09:03:42;;;;;;;8.57;7.60;;;22.80;84.60;;;;;;5096524;28;20465;-59
2022/08/20 09:06:14;;;;;;;8.90;7.80;;;23.00;84.20;;;;;;5096748;28;20433;-60
2022/08/20 09:08:48;;;;;;;9.60;8.60;;;23.20;83.10;;;;;;5096204;28;20451;-60
2022/08/20 09:11:15;;;;;;;8.70;7.40;;;23.40;82.00;;;;;;5096090;28;20486;-59
2022/08/20 09:13:43;;;;;;;9.17;7.97;;;23.50;81.20;;;;;;5096482;28;20442;-59
2022/08/20 09:16:10;;;;;;;9.13;7.70;;;23.60;80.70;;;;;;5096837;28;20550;-60
2022/08/20 09:18:38;;;;;;;8.17;6.90;;;23.70;79.80;;;;;;5096371;28;20442;-59
2022/08/20 09:21:05;;;;;;;8.40;7.50;;;23.70;79.10;;;;;;5096896;28;20510;-59
2022/08/20 09:23:33;;;;;;;8.70;7.80;;;23.90;78.40;;;;;;5096940;28;20439;-60
2022/08/20 09:26:01;;;;;;;9.13;8.13;;;23.90;77.70;;;;;;5097396;28;20548;-60
2022/08/20 09:28:29;;;;;;;8.93;7.93;;;23.80;77.30;;;;;;5099019;28;20478;-61
2022/08/20 09:30:56;;;;;;;8.60;7.80;;;23.70;77.30;;;;;;5096756;28;20529;-60
2022/08/20 09:33:23;;;;;;;9.50;8.10;;;23.70;77.60;;;;;;5097425;28;20528;-59
2022/08/20 09:35:51;;;;;;;8.50;7.70;;;23.80;77.50;;;;;;5095931;28;20475;-58
2022/08/20 09:38:18;;;;;;;8.63;7.73;;;24.00;76.90;;;;;;5096772;28;20441;-60
2022/08/20 09:40:45;;;;;;;7.93;7.13;;;24.10;76.50;;;;;;5097023;28;20518;-58
2022/08/20 09:43:14;;;;;;;8.57;7.17;;;24.20;76.00;;;;;;5095814;28;21013;-59
2022/08/20 09:45:41;;;;;;;8.53;7.63;;;24.30;75.50;;;;;;5095836;28;20461;-59
2022/08/20 09:48:08;;;;;;;8.13;7.43;;;24.30;75.10;;;;;;5095770;28;21011;-60
2022/08/20 09:50:36;;;;;;;10.33;7.33;;;24.40;74.50;;;;;;5095537;28;20592;-60
2022/08/20 09:53:06;;;;;;;8.23;5.63;;;24.40;74.90;;;;;;5095650;28;20551;-61
2022/08/20 09:55:36;;;;;;;6.73;5.37;;;24.40;74.00;;;;;;5100420;28;20444;-59
2022/08/20 09:58:07;;;;;;;7.87;7.07;;;24.50;73.60;;;;;;5101987;28;20437;-60
2022/08/20 10:00:36;;;;;;;7.73;6.47;;;24.70;72.30;;;;;;5096481;28;20464;-60
2022/08/20 10:03:03;;;;;;;7.57;6.43;;;24.90;71.80;;;;;;5095846;28;20465;-58
2022/08/20 10:05:31;;;;;;;7.43;6.33;;;25.10;70.70;;;;;;5096180;28;20813;-61
2022/08/20 10:07:58;;;;;;;7.97;7.13;;;25.40;69.50;;;;;;5095894;28;20906;-60
2022/08/20 10:10:26;;;;;;;7.70;6.97;;;25.50;68.30;;;;;;5096008;28;20927;-61
2022/08/20 10:12:53;;;;;;;8.00;6.97;;;25.70;67.50;;;;;;5096004;28;20567;-59
2022/08/20 10:15:20;;;;;;;9.03;7.80;;;25.90;66.80;;;;;;5097283;28;20526;-59
2022/08/20 10:17:49;;;;;;;8.30;7.60;;;25.80;66.30;;;;;;5098883;28;20437;-60
2022/08/20 10:20:17;;;;;;;9.97;9.07;;;25.70;66.30;;;;;;5100777;28;20470;-59
2022/08/20 10:22:44;;;;;;;10.50;9.50;;;25.60;66.30;;;;;;5095393;28;20475;-60
2022/08/20 10:25:12;;;;;;;10.20;9.30;;;25.40;66.80;;;;;;5095312;28;20478;-59
2022/08/20 10:27:39;;;;;;;12.20;9.80;;;25.30;67.50;;;;;;5096032;28;20504;-59
2022/08/20 10:30:08;;;;;;;10.40;9.40;;;25.30;67.80;;;;;;5096059;28;20555;-60
2022/08/20 10:32:35;;;;;;;10.13;9.13;;;25.20;68.00;;;;;;5095797;28;20505;-59
2022/08/20 10:35:05;;;;;;;8.30;7.60;;;25.20;68.20;;;;;;5097955;28;20530;-61
2022/08/20 10:37:33;;;;;;;8.80;8.10;;;25.10;68.40;;;;;;5098986;28;20453;-60
2022/08/20 10:40:01;;;;;;;11.03;9.67;;;25.00;69.00;;;;;;5095639;28;20444;-60
2022/08/20 10:42:28;;;;;;;11.00;10.00;;;25.00;69.40;;;;;;5095626;28;20466;-60
2022/08/20 10:44:55;;;;;;;9.33;8.53;;;24.90;69.70;;;;;;5095531;28;20444;-60
2022/08/20 10:47:25;;;;;;;11.47;10.37;;;24.70;70.40;;;;;;5095995;28;20471;-60
2022/08/20 10:49:54;;;;;;;12.17;11.07;;;24.40;71.60;;;;;;5095076;28;20478;-60
2022/08/20 10:52:23;;;;;;;14.23;12.93;;;24.00;74.40;;;;;;5095402;28;20567;-60
2022/08/20 10:54:51;;;;;;;13.40;12.10;;;23.30;80.80;;;;;;5099800;28;20469;-59
2022/08/20 10:57:21;;;;;;;15.80;14.30;;;22.60;90.30;;;;;;5097517;28;20450;-60
2022/08/20 10:59:51;;;;;;;16.07;14.47;;;22.10;94.40;;;;;;5097584;28;20431;-59
2022/08/20 11:02:19;;;;;;;20.70;18.30;;;21.60;96.80;;;;;;5096517;28;20844;-59
2022/08/20 11:04:47;;;;;;;19.13;17.17;;;21.30;99.20;;;;;;5097275;28;20449;-60
2022/08/20 11:07:16;;;;;;;22.00;19.03;;;21.10;99.90;;;;;;5094763;28;20450;-60
2022/08/20 11:09:47;;;;;;;20.07;17.67;;;21.00;99.90;;;;;;5096522;28;20451;-60
2022/08/20 11:12:14;;;;;;;18.10;16.20;;;20.90;99.90;;;;;;5095682;28;20850;-60
2022/08/20 11:14:42;;;;;;;18.70;16.90;;;20.90;99.90;;;;;;5095120;28;20517;-60
2022/08/20 11:17:09;;;;;;;19.47;17.47;;;20.90;99.90;;;;;;5095203;28;20868;-60
2022/08/20 11:19:40;;;;;;;16.17;14.50;;;21.00;99.90;;;;;;5096948;28;20447;-62
2022/08/20 11:22:07;;;;;;;15.80;14.20;;;21.10;99.90;;;;;;5099920;28;20515;-60
2022/08/20 11:24:35;;;;;;;13.73;12.40;;;21.20;99.90;;;;;;5100851;28;20451;-60
2022/08/20 11:27:06;;;;;;;16.50;12.80;;;21.30;99.90;;;;;;5099449;28;20539;-59
2022/08/20 11:29:33;;;;;;;17.00;14.93;;;21.30;99.90;;;;;;5098865;28;20463;-61
2022/08/20 11:32:00;;;;;;;14.30;12.90;;;21.40;99.90;;;;;;5098607;28;20480;-58
2022/08/20 11:34:28;;;;;;;15.80;14.20;;;21.50;99.90;;;;;;5098675;28;20478;-61
2022/08/20 11:36:55;;;;;;;16.17;14.57;;;21.70;99.90;;;;;;5098399;28;20446;-60
2022/08/20 11:39:22;;;;;;;18.03;16.00;;;22.00;99.90;;;;;;5097444;28;20449;-60
2022/08/20 11:41:50;;;;;;;17.57;15.60;;;22.20;99.90;;;;;;5095500;28;20503;-60
2022/08/20 11:44:18;;;;;;;15.47;13.87;;;22.40;99.90;;;;;;5095328;28;20477;-60
2022/08/20 11:46:46;;;;;;;14.40;13.00;;;22.60;99.90;;;;;;5096038;28;20806;-60
2022/08/20 11:49:13;;;;;;;15.07;13.03;;;22.70;99.90;;;;;;5096236;28;20508;-61
2022/08/20 11:51:40;;;;;;;14.57;13.23;;;22.80;99.90;;;;;;5094999;28;20569;-59
2022/08/20 11:54:07;;;;;;;15.37;13.87;;;23.00;99.90;;;;;;5095587;28;20443;-60
2022/08/20 11:56:34;;;;;;;11.80;10.70;;;23.10;99.90;;;;;;5094793;28;20535;-59
2022/08/20 11:59:02;;;;;;;11.33;10.13;;;23.30;99.90;;;;;;5094164;28;20450;-58
2022/08/20 12:01:31;;;;;;;10.10;9.20;;;23.60;99.50;;;;;;5094669;28;20459;-59
2022/08/20 12:03:58;;;;;;;9.50;8.63;;;23.80;98.70;;;;;;5095088;28;20462;-59
2022/08/20 12:06:25;;;;;;;8.03;7.30;;;23.90;98.00;;;;;;5094014;28;20474;-59
2022/08/20 12:08:52;;;;;;;7.20;6.60;;;24.00;97.00;;;;;;5093332;28;20465;-58
2022/08/20 12:11:20;;;;;;;5.47;4.90;;;23.90;96.50;;;;;;5094210;28;20574;-60
2022/08/20 12:13:47;;;;;;;5.10;4.70;;;23.90;96.20;;;;;;5096536;28;20804;-60
2022/08/20 12:16:15;;;;;;;4.10;3.80;;;24.10;95.60;;;;;;5096483;28;20502;-59
2022/08/20 12:18:43;;;;;;;3.20;3.00;;;24.40;94.50;;;;;;5095668;28;20448;-60
2022/08/20 12:21:11;;;;;;;3.53;3.23;;;24.50;93.00;;;;;;5095901;28;20907;-58
2022/08/20 12:23:39;;;;;;;3.33;2.60;;;24.60;91.90;;;;;;5095673;28;20447;-58
2022/08/20 12:26:06;;;;;;;2.40;2.20;;;24.70;91.20;;;;;;5094999;28;20442;-60
2022/08/20 12:28:34;;;;;;;4.37;4.00;;;24.90;90.20;;;;;;5094884;28;20457;-62
2022/08/20 12:31:01;;;;;;;3.83;3.27;;;25.20;87.60;;;;;;5097399;28;20568;-60
2022/08/20 12:33:28;;;;;;;3.90;3.60;;;25.40;85.90;;;;;;5099227;28;20480;-59
2022/08/20 12:35:57;;;;;;;3.83;3.53;;;25.50;84.70;;;;;;5099120;28;20476;-60
2022/08/20 12:38:24;;;;;;;3.90;3.60;;;25.60;83.20;;;;;;5099719;28;20473;-60
2022/08/20 12:40:52;;;;;;;4.37;3.97;;;25.60;82.30;;;;;;5099185;28;20479;-60
2022/08/20 12:43:19;;;;;;;2.67;2.47;;;25.70;81.20;;;;;;5098429;28;20465;-60
2022/08/20 12:45:46;;;;;;;4.70;3.00;;;25.80;79.20;;;;;;5098774;28;20444;-60
2022/08/20 12:48:14;;;;;;;3.60;3.30;;;25.90;77.30;;;;;;5098463;28;20533;-59
2022/08/20 12:50:44;;;;;;;3.20;3.00;;;26.10;75.60;;;;;;5099213;28;20513;-61
2022/08/20 12:53:13;;;;;;;3.77;3.37;;;26.40;73.80;;;;;;5098668;28;20477;-60
2022/08/20 12:55:40;;;;;;;4.77;3.60;;;26.60;71.50;;;;;;5099970;28;20484;-61